Governor's Harbour, The Bahamas
Current Conditions -  °F | °C
As of 7:00 AM on Sunday 23 Nov 2014 (Local Time) from MYNN Reporting Station
Few Clouds Few Clouds  
Wind Chill: 77°   Ceiling: Unl
Heat Index: 78°   Visibility: 6mi
Dew Point: 72°   Wind: 3mph
Humidity: 83%   Direction: 110°ESE
Pressure: 30.05"   Gusts: NA
Location:  25.17°N, 76.23°W
Report Text: MYNN 231100Z 11003KT 9999 FEW017 25/22 A3005
Loading
Personal Weather Stations






























Interactive Weather Map New forecast layout! Learn more

10-Day Weather Forecast

Advertisements
Track Severe Weather on mobile